Latest Weather Observations for Kowen Forest

IDN60901

Issued at 8:21 am EDT Wednesday 23 October 2019 (issued every 10 minutes, with the page automatically refreshed every 10 minutes)

About weather observations | Map of Canberra area stations | Latest observations for Canberra area | Other Formats
Station Details ID: 250071 Name: KOWEN FOREST (PCS) Lat: -35.31 Lon: 149.32 Height: 720.0 m
Data from the previous 72 hours. | See also: Recent months for locations in Aust Capital Territory
Date/Time
EDT
Temp
°C
App
Temp
°C
Dew
Point
°C
Rel
Hum
%
Delta-T
°C
Wind Press
QNH
hPa
Press
MSL
hPa
Rain since
9am
mm
Dir  Spd
km/h
Gust
km/h
Spd
kts
Gust
kts
23/08:10am 11.8 11.2 9.1 83 1.4 W 2 4 1 2 - - 0.0
23/08:00am 11.2 10.5 8.7 84 1.3 SW 2 4 1 2 - - 0.0
23/07:50am 10.2 9.4 8.1 87 1.1 SSW 2 2 1 1 - - 0.0
23/07:40am 9.1 8.1 7.2 88 0.9 SW 2 2 1 1 - - 0.0
23/07:30am 8.1 7.0 6.7 91 0.7 N 2 2 1 1 - - 0.0
23/07:20am 7.0 5.7 6.1 94 0.4 WNW 2 2 1 1 - - 0.0
23/07:10am 6.0 4.6 5.4 96 0.3 WNW 2 4 1 2 - - 0.0
23/07:00am 5.5 4.0 5.1 97 0.2 SSW 2 4 1 2 - - 0.0
23/06:50am 4.7 3.1 4.4 98 0.1 E 2 4 1 2 - - 0.0
23/06:40am 3.6 1.4 3.2 97 0.2 NE 4 6 2 3 - - 0.0
23/06:30am 3.2 0.9 2.8 97 0.2 NE 4 4 2 2 - - 0.0
23/06:20am 4.1 1.6 3.9 99 0.1 NE 6 6 3 3 - - 0.0
23/06:10am 4.3 1.9 4.1 99 0.1 NE 6 6 3 3 - - 0.0
23/06:00am 4.8 2.5 4.6 99 0.1 NE 6 6 3 3 - - 0.0
23/05:50am 3.6 1.0 3.2 97 0.2 NNE 6 6 3 3 - - 0.0
23/05:40am 3.7 1.9 3.3 97 0.2 NE 2 4 1 2 - - 0.0
23/05:30am 4.8 2.8 4.6 99 0.1 E 4 6 2 3 - - 0.0
23/05:20am 4.6 2.0 4.3 98 0.1 NE 7 7 4 4 - - 0.0
23/05:10am 4.1 1.6 3.7 97 0.2 NE 6 7 3 4 - - 0.0
23/05:00am 4.3 1.8 3.9 97 0.2 NE 6 7 3 4 - - 0.0
23/04:50am 4.4 1.7 3.9 97 0.2 NE 7 7 4 4 - - 0.0
23/04:40am 4.6 2.2 4.2 97 0.2 NE 6 7 3 4 - - 0.0
23/04:30am 4.8 2.4 4.4 97 0.2 NE 6 6 3 3 - - 0.0
23/04:20am 5.1 2.8 4.7 97 0.2 NE 6 6 3 3 - - 0.0
23/04:10am 5.3 3.0 4.9 97 0.2 NE 6 6 3 3 - - 0.0
23/04:00am 5.6 3.8 5.2 97 0.2 NE 4 6 2 3 - - 0.0
23/03:50am 5.7 3.9 5.3 97 0.2 NE 4 4 2 2 - - 0.0
23/03:40am 6.3 4.6 5.8 97 0.2 NE 4 4 2 2 - - 0.0
23/03:30am 6.4 4.7 5.8 96 0.3 NNE 4 6 2 3 - - 0.0
23/03:20am 7.1 5.9 6.6 97 0.2 N 2 2 1 1 - - 0.0
23/03:10am 7.0 5.8 6.4 96 0.3 WNW 2 4 1 2 - - 0.0
23/03:00am 7.7 6.6 7.0 95 0.3 S 2 4 1 2 - - 0.0
23/02:50am 8.0 7.0 7.3 95 0.3 SW 2 2 1 1 - - 0.0
23/02:40am 8.4 7.5 7.6 95 0.4 SE 2 4 1 2 - - 0.0
23/02:30am 8.7 7.1 7.8 94 0.4 ESE 6 9 3 5 - - 0.0
23/02:20am 9.3 7.6 8.5 95 0.4 SE 7 9 4 5 - - 0.0
23/02:10am 9.6 7.6 8.5 93 0.6 SE 9 9 5 5 - - 0.0
23/02:00am 9.9 8.3 8.7 92 0.6 SE 7 9 4 5 - - 0.0
23/01:50am 10.7 8.8 9.0 89 0.9 ESE 9 13 5 7 - - 0.0
23/01:40am 10.7 8.8 9.1 90 0.8 ESE 9 11 5 6 - - 0.0
23/01:30am 11.0 8.3 9.1 88 1.0 ESE 13 15 7 8 - - 0.0
23/01:20am 11.1 8.9 9.2 88 1.0 E 11 13 6 7 - - 0.0
23/01:10am 11.1 8.9 9.2 88 1.0 ESE 11 13 6 7 - - 0.0
23/01:00am 11.2 9.3 9.1 87 1.1 ESE 9 11 5 6 - - 0.0
23/12:50am 11.3 9.8 9.2 87 1.1 SE 7 9 4 5 - - 0.0
23/12:40am 11.5 10.0 9.3 86 1.1 ESE 7 9 4 5 - - 0.0
23/12:30am 11.5 9.7 9.3 86 1.1 E 9 15 5 8 - - 0.0
23/12:20am 11.6 9.4 9.5 87 1.1 E 11 15 6 8 - - 0.0
23/12:10am 11.7 9.9 9.6 87 1.1 E 9 13 5 7 - - 0.0
23/12:00am 11.8 9.7 9.6 86 1.2 E 11 15 6 8 - - 0.0
 
Date/Time
EDT
Temp
°C
App
Temp
°C
Dew
Point
°C
Rel
Hum
%
Delta-T
°C
Wind Press
QNH
hPa
Press
MSL
hPa
Rain since
9am
mm
Dir  Spd
km/h
Gust
km/h
Spd
kts
Gust
kts
22/11:50pm 12.0 9.1 9.7 86 1.2 E 15 19 8 10 - - 0.0
22/11:40pm 12.1 9.6 9.8 86 1.2 E 13 17 7 9 - - 0.0
22/11:30pm 12.3 9.9 10.1 86 1.2 E 13 15 7 8 - - 0.0
22/11:20pm 12.4 10.0 10.1 86 1.2 E 13 17 7 9 - - 0.0
22/11:10pm 12.5 10.5 10.2 86 1.2 E 11 13 6 7 - - 0.0
22/11:00pm 12.5 10.5 10.2 86 1.2 E 11 15 6 8 - - 0.0
22/10:50pm 12.6 11.0 10.3 86 1.2 E 9 11 5 6 - - 0.0
22/10:40pm 12.7 10.7 10.3 85 1.3 E 11 13 6 7 - - 0.0
22/10:30pm 12.7 10.7 10.3 85 1.3 E 11 15 6 8 - - 0.0
22/10:20pm 12.8 10.8 10.3 85 1.3 E 11 13 6 7 - - 0.0
22/10:10pm 12.9 10.6 10.3 84 1.4 E 13 17 7 9 - - 0.0
22/10:00pm 13.0 10.3 10.3 84 1.5 E 15 17 8 9 - - 0.0
22/09:50pm 13.0 10.3 10.2 83 1.5 ENE 15 17 8 9 - - 0.0
22/09:40pm 13.0 10.6 10.1 82 1.6 E 13 15 7 8 - - 0.0
22/09:30pm 13.2 10.8 10.1 81 1.7 E 13 19 7 10 - - 0.0
22/09:20pm 13.3 9.8 10.1 81 1.7 E 19 24 10 13 - - 0.0
22/09:10pm 13.5 9.7 9.9 79 1.9 E 20 24 11 13 - - 0.0
22/09:00pm 13.7 9.9 9.8 77 2.1 ENE 20 24 11 13 - - 0.0
22/08:50pm 13.9 11.0 9.7 76 2.2 ENE 15 17 8 9 - - 0.0
22/08:40pm 14.2 11.6 9.3 72 2.6 E 13 19 7 10 - - 0.0
22/08:30pm 14.4 12.5 9.0 70 2.9 E 9 11 5 6 - - 0.0
22/08:20pm 14.7 12.4 8.9 68 3.1 E 11 13 6 7 - - 0.0
22/08:10pm 15.0 13.1 8.9 67 3.2 E 9 13 5 7 - - 0.0
22/08:00pm 15.3 13.7 8.9 65 3.4 ESE 7 13 4 7 - - 0.0
22/07:50pm 15.6 13.2 8.8 64 3.6 E 11 17 6 9 - - 0.0
22/07:40pm 16.0 13.3 8.9 62 3.8 E 13 17 7 9 - - 0.0
22/07:30pm 16.5 13.8 9.1 61 4.0 E 13 22 7 12 - - 0.0
22/07:20pm 17.1 14.1 9.3 60 4.2 E 15 22 8 12 - - 0.0
22/07:10pm 17.6 13.3 9.4 58 4.4 E 22 28 12 15 - - 0.0
22/07:00pm 18.2 13.6 9.6 57 4.7 ENE 24 33 13 18 - - 0.0
22/06:50pm 18.9 13.6 9.8 55 5.0 ENE 28 33 15 18 - - 0.0
22/06:40pm 19.4 13.2 9.9 54 5.3 ENE 33 39 18 21 - - 0.0
22/06:30pm 20.1 15.6 10.1 52 5.6 ENE 24 28 13 15 - - 0.0
22/06:20pm 20.7 15.5 10.1 50 5.9 ENE 28 32 15 17 - - 0.0
22/06:10pm 21.7 16.1 10.1 47 6.5 ENE 30 32 16 17 - - 0.0
22/06:00pm 22.2 16.5 9.8 45 6.9 ENE 30 35 16 19 - - 0.0
22/05:50pm 23.1 17.3 9.6 42 7.6 ENE 30 33 16 18 - - 0.0
22/05:40pm 24.3 20.0 9.2 38 8.5 NE 22 32 12 17 - - 0.0
22/05:30pm 26.1 21.4 -1.9 15 13.0 WNW 13 15 7 8 - - 0.0
22/05:20pm 26.3 20.8 -1.9 15 13.1 NNW 17 20 9 11 - - 0.0
22/05:10pm 26.3 21.2 -2.2 15 13.2 NW 15 22 8 12 - - 0.0
22/05:00pm 26.4 20.9 -2.2 15 13.3 NNW 17 20 9 11 - - 0.0
22/04:50pm 26.7 22.4 -1.7 15 13.3 WNW 11 15 6 8 - - 0.0
22/04:40pm 26.7 21.2 -2.4 14 13.5 WNW 17 20 9 11 - - 0.0
22/04:30pm 26.8 22.0 -2.8 14 13.6 WNW 13 17 7 9 - - 0.0
22/04:20pm 26.7 21.8 -3.3 13 13.7 W 13 15 7 8 - - 0.0
22/04:10pm 26.8 21.8 -4.2 13 13.9 W 13 19 7 10 - - 0.0
22/04:00pm 26.9 22.5 -2.7 14 13.6 WNW 11 20 6 11 - - 0.0
22/03:50pm 26.6 22.1 -3.0 14 13.5 SW 11 17 6 9 - - 0.0
22/03:40pm 26.5 21.3 -3.0 14 13.5 WNW 15 24 8 13 - - 0.0
22/03:30pm 26.4 22.4 -2.6 14 13.3 NW 9 20 5 11 - - 0.0
22/03:20pm 26.7 23.2 -1.6 15 13.3 NNW 7 15 4 8 - - 0.0
22/03:10pm 26.6 22.4 -1.0 16 13.1 W 11 19 6 10 - - 0.0
22/03:00pm 26.8 24.0 -0.5 16 13.1 ESE 4 6 2 3 - - 0.0
22/02:50pm 26.7 23.1 -2.0 15 13.4 WNW 7 17 4 9 - - 0.0
22/02:40pm 26.1 23.0 0.4 18 12.5 NW 6 17 3 9 - - 0.0
22/02:30pm 25.7 21.0 1.1 20 12.0 WNW 15 24 8 13 - - 0.0
22/02:20pm 25.4 20.3 0.9 20 11.9 WNW 17 24 9 13 - - 0.0
22/02:10pm 25.3 21.5 1.8 21 11.6 NW 11 17 6 9 - - 0.0
22/02:00pm 24.9 20.0 2.3 23 11.2 WNW 17 22 9 12 - - 0.0
22/01:50pm 25.4 20.7 3.0 23 11.3 W 17 24 9 13 - - 0.0
22/01:40pm 24.8 19.5 2.9 24 11.0 W 20 26 11 14 - - 0.0
22/01:30pm 24.6 20.6 2.8 24 10.9 WNW 13 20 7 11 - - 0.0
22/01:20pm 24.9 20.3 3.7 25 10.8 W 17 20 9 11 - - 0.0
22/01:10pm 24.7 20.3 2.8 24 11.0 W 15 20 8 11 - - 0.0
22/01:00pm 24.3 20.0 3.5 26 10.5 WNW 15 19 8 10 - - 0.0
22/12:50pm 24.1 19.9 1.9 23 10.9 SW 13 17 7 9 - - 0.0
22/12:40pm 23.6 18.3 1.9 24 10.6 W 19 22 10 12 - - 0.0
22/12:30pm 23.7 18.7 1.6 23 10.8 W 17 22 9 12 - - 0.0
22/12:20pm 23.4 18.5 1.7 24 10.6 W 17 24 9 13 - - 0.0
22/12:10pm 23.2 18.2 1.4 24 10.5 WNW 17 26 9 14 - - 0.0
22/12:00pm 23.0 17.6 2.7 26 10.0 WNW 20 28 11 15 - - 0.0
22/11:50am 23.0 17.8 3.7 28 9.7 W 20 26 11 14 - - 0.0
22/11:40am 23.0 18.2 2.6 26 10.1 W 17 24 9 13 - - 0.0
22/11:30am 22.1 17.3 2.7 28 9.5 WNW 17 22 9 12 - - 0.0
22/11:20am 22.0 17.1 4.1 31 9.0 WNW 19 22 10 12 - - 0.0
22/11:10am 21.7 17.2 4.2 31 8.8 WNW 17 20 9 11 - - 0.0
22/11:00am 21.8 18.2 5.1 33 8.6 WNW 13 20 7 11 - - 0.0
22/10:50am 21.5 17.0 4.0 31 8.8 NW 17 22 9 12 - - 0.0
22/10:40am 20.9 16.9 5.1 35 8.1 WNW 15 20 8 11 - - 0.0
22/10:30am 20.5 16.0 5.9 38 7.5 W 19 22 10 12 - - 0.0
22/10:20am 20.2 16.0 5.7 38 7.5 WNW 17 20 9 11 - - 0.0
22/10:10am 19.8 15.7 6.4 41 7.0 W 17 19 9 10 - - 0.0
22/10:00am 19.5 15.9 6.9 44 6.6 W 15 17 8 9 - - 0.0
22/09:50am 18.7 16.4 7.5 48 5.9 S 9 13 5 7 - - 0.0
22/09:40am 18.4 16.8 7.8 50 5.6 SW 6 9 3 5 - - 0.0
22/09:30am 17.8 16.0 7.3 50 5.5 WSW 6 7 3 4 - - 0.0
22/09:20am 17.2 15.6 7.8 54 4.9 SW 6 7 3 4 - - 0.0
22/09:10am 16.5 15.2 7.8 56 4.5 SSW 4 6 2 3 - - 0.0
22/09:00am 15.6 13.7 7.6 59 4.1 SW 7 7 4 4 - - 0.0
22/08:50am 14.9 13.0 7.6 61 3.8 SW 7 7 4 4 - - 0.0
22/08:40am 14.3 13.0 7.7 64 3.4 SSW 4 4 2 2 - - 0.0
22/08:30am 13.2 11.8 7.3 67 3.0 SSW 4 7 2 4 - - 0.0
22/08:20am 12.3 10.3 7.3 71 2.5 SSW 7 9 4 5 - - 0.0
22/08:10am 12.0 10.6 7.2 72 2.4 SSW 4 6 2 3 - - 0.0
22/08:00am 10.9 9.4 6.9 76 2.0 WSW 4 6 2 3 - - 0.0
22/07:50am 10.1 8.2 6.7 79 1.7 SW 6 6 3 3 - - 0.0
22/07:40am 9.8 8.3 6.7 81 1.5 S 4 4 2 2 - - 0.0
22/07:30am 9.1 7.9 6.5 84 1.3 SSW 2 4 1 2 - - 0.0
22/07:20am 8.2 6.5 6.0 86 1.0 NE 4 4 2 2 - - 0.0
22/07:10am 7.2 5.8 5.6 89 0.7 N 2 4 1 2 - - 0.0
22/07:00am 6.0 4.2 5.3 95 0.3 NE 4 6 2 3 - - 0.0
22/06:50am 4.6 2.1 4.0 96 0.3 NE 6 7 3 4 - - 0.0
22/06:40am 3.7 1.1 3.1 96 0.3 NE 6 7 3 4 - - 0.0
22/06:30am 4.2 1.7 3.7 97 0.2 NE 6 7 3 4 - - 0.0
22/06:20am 4.1 1.4 3.7 97 0.2 NE 7 7 4 4 - - 0.0
22/06:10am 3.3 0.4 2.6 95 0.3 NE 7 7 4 4 - - 0.0
22/06:00am 3.6 0.8 3.2 97 0.2 NE 7 7 4 4 - - 0.0
22/05:50am 3.8 1.2 3.4 97 0.2 NE 6 6 3 3 - - 0.0
22/05:40am 3.7 0.9 3.4 98 0.1 NE 7 7 4 4 - - 0.0
22/05:30am 2.7 -0.1 2.1 96 0.2 NE 6 6 3 3 - - 0.0
22/05:20am 3.0 0.2 2.3 95 0.3 NE 6 6 3 3 - - 0.0
22/05:10am 2.9 0.5 2.1 94 0.3 NE 4 6 2 3 - - 0.0
22/05:00am 4.0 2.2 3.5 97 0.2 SE 2 4 1 2 - - 0.0
22/04:50am 3.4 0.7 2.6 94 0.3 NE 6 7 3 4 - - 0.0
22/04:40am 4.7 1.6 3.6 93 0.5 NE 9 9 5 5 - - 0.0
22/04:30am 4.4 1.3 3.6 95 0.3 NE 9 9 5 5 - - 0.0
22/04:20am 4.4 1.7 3.9 97 0.2 NE 7 9 4 5 - - 0.0
22/04:10am 3.5 0.8 2.7 94 0.3 NE 6 6 3 3 - - 0.0
22/04:00am 3.8 1.5 3.0 94 0.3 NE 4 6 2 3 - - 0.0
22/03:50am 4.1 1.6 3.6 97 0.2 NE 6 7 3 4 - - 0.0
22/03:40am 4.0 1.3 2.8 92 0.5 NE 6 6 3 3 - - 0.0
22/03:30am 4.5 2.0 3.9 96 0.3 NE 6 6 3 3 - - 0.0
22/03:20am 4.2 2.0 3.5 95 0.3 NE 4 6 2 3 - - 0.0
22/03:10am 4.7 3.0 4.0 95 0.3 ENE 2 4 1 2 - - 0.0
22/03:00am 4.4 1.9 3.7 95 0.3 NE 6 7 3 4 - - 0.0
22/02:50am 4.3 1.8 3.5 94 0.3 NE 6 6 3 3 - - 0.0
22/02:40am 4.9 2.5 4.2 95 0.3 NE 6 6 3 3 - - 0.0
22/02:30am 4.7 2.2 4.0 95 0.3 NE 6 6 3 3 - - 0.0
22/02:20am 4.9 2.8 3.9 93 0.4 NE 4 6 2 3 - - 0.0
22/02:10am 5.7 3.2 4.0 89 0.8 NE 6 7 3 4 - - 0.0
22/02:00am 5.9 3.1 5.1 95 0.4 NE 9 9 5 5 - - 0.0
22/01:50am 5.4 2.8 4.4 93 0.4 NE 7 9 4 5 - - 0.0
22/01:40am 6.4 4.1 5.0 91 0.6 NE 6 6 3 3 - - 0.0
22/01:30am 6.9 4.8 5.6 91 0.6 NE 6 6 3 3 - - 0.0
22/01:20am 7.0 5.1 5.1 88 0.9 NE 4 7 2 4 - - 0.0
22/01:10am 7.5 6.1 5.3 86 1.0 NE 2 4 1 2 - - 0.0
22/01:00am 8.1 6.8 5.8 85 1.1 NNE 2 2 1 1 - - 0.0
22/12:50am 8.6 7.4 6.4 86 1.1 ENE 2 4 1 2 - - 0.0
22/12:40am 9.7 7.7 6.3 79 1.6 SSE 6 7 3 4 - - 0.0
22/12:30am 10.5 8.4 6.8 78 1.8 ESE 7 9 4 5 - - 0.0
22/12:20am 11.0 8.6 6.9 76 2.0 ESE 9 11 5 6 - - 0.0
22/12:10am 11.1 8.3 7.1 76 2.0 ESE 11 13 6 7 - - 0.0
22/12:00am 11.1 8.4 7.2 77 1.9 SE 11 13 6 7 - - 0.0
 
Date/Time
EDT
Temp
°C
App
Temp
°C
Dew
Point
°C
Rel
Hum
%
Delta-T
°C
Wind Press
QNH
hPa
Press
MSL
hPa
Rain since
9am
mm
Dir  Spd
km/h
Gust
km/h
Spd
kts
Gust
kts
21/11:50pm 11.2 8.4 6.9 75 2.1 SE 11 15 6 8 - - 0.0
21/11:40pm 11.1 9.0 6.8 75 2.1 SE 7 11 4 6 - - 0.0
21/11:30pm 11.5 9.7 7.1 74 2.2 SE 6 7 3 4 - - 0.0
21/11:20pm 11.9 9.9 7.1 72 2.4 E 7 13 4 7 - - 0.0
21/11:10pm 12.0 10.0 7.1 72 2.5 ENE 7 13 4 7 - - 0.0
21/11:00pm 12.1 8.9 7.0 71 2.5 ENE 13 20 7 11 - - 0.0
21/10:50pm 12.0 8.4 6.9 71 2.5 E 15 19 8 10 - - 0.0
21/10:40pm 12.0 8.9 7.1 72 2.5 SE 13 15 7 8 - - 0.0
21/10:30pm 12.0 9.6 6.8 70 2.6 SE 9 13 5 7 - - 0.0
21/10:20pm 12.2 9.9 7.5 73 2.4 SE 9 13 5 7 - - 0.0
21/10:10pm 12.3 9.8 8.0 75 2.2 SE 11 13 6 7 - - 0.0
21/10:00pm 12.5 9.5 7.9 73 2.3 SE 13 17 7 9 - - 0.0
21/09:50pm 12.6 10.1 8.2 74 2.3 SSE 11 11 6 6 - - 0.0
21/09:40pm 12.8 10.7 8.3 74 2.3 SE 9 11 5 6 - - 0.0
21/09:30pm 12.9 10.5 8.5 74 2.3 SE 11 13 6 7 - - 0.0
21/09:20pm 13.2 11.1 8.4 72 2.5 SSE 9 11 5 6 - - 0.0
21/09:10pm 13.5 11.8 8.5 72 2.6 SE 7 11 4 6 - - 0.0
21/09:00pm 13.8 12.1 8.5 70 2.8 SE 7 11 4 6 - - 0.0
21/08:50pm 14.2 12.7 8.4 68 3.0 ESE 6 11 3 6 - - 0.0
21/08:40pm 14.5 12.8 8.3 66 3.2 SE 7 9 4 5 - - 0.0
21/08:30pm 14.9 12.8 8.3 64 3.5 ESE 9 13 5 7 - - 0.0
21/08:20pm 15.2 13.5 8.3 63 3.6 ESE 7 9 4 5 - - 0.0
21/08:10pm 15.6 13.9 8.3 62 3.8 SE 7 11 4 6 - - 0.0
21/08:00pm 15.9 14.3 8.2 60 4.0 SE 6 7 3 4 - - 0.0
21/07:50pm 16.3 14.6 8.3 59 4.2 E 7 13 4 7 - - 0.0
21/07:40pm 16.7 14.2 8.2 57 4.5 ENE 11 17 6 9 - - 0.0
21/07:30pm 17.2 13.1 8.0 54 4.8 ENE 19 24 10 13 - - 0.0
21/07:20pm 17.7 13.1 8.1 53 5.1 ENE 22 30 12 16 - - 0.0
21/07:10pm 18.3 13.3 7.9 50 5.5 NE 24 28 13 15 - - 0.0
21/07:00pm 18.8 14.1 7.8 48 5.8 ENE 22 26 12 14 - - 0.0
21/06:50pm 19.4 13.9 7.6 46 6.3 ENE 26 32 14 17 - - 0.0
21/06:40pm 20.0 14.5 7.5 44 6.6 ENE 26 28 14 15 - - 0.0
21/06:30pm 20.7 15.1 7.3 42 7.1 ENE 26 32 14 17 - - 0.0
21/06:20pm 21.2 15.9 6.8 39 7.6 ENE 24 30 13 16 - - 0.0
21/06:10pm 21.6 15.5 6.8 38 7.8 ENE 28 32 15 17 - - 0.0
21/06:00pm 22.4 16.2 6.3 35 8.5 ENE 28 33 15 18 - - 0.0
21/05:50pm 23.7 18.9 5.7 31 9.5 ENE 20 28 11 15 - - 0.0
21/05:40pm 25.1 21.5 -3.5 15 12.8 NE 6 11 3 6 - - 0.0
21/05:30pm 25.5 21.9 -3.8 14 13.1 NE 6 11 3 6 - - 0.0
21/05:20pm 25.3 21.5 -3.6 14 12.9 N 7 15 4 8 - - 0.0
21/05:10pm 25.6 21.8 -3.9 14 13.2 N 7 9 4 5 - - 0.0
21/05:00pm 25.4 21.2 -3.5 14 13.0 NE 9 13 5 7 - - 0.0
21/04:50pm 24.9 20.0 -3.2 15 12.6 NNE 13 20 7 11 - - 0.0
21/04:40pm 24.9 20.3 -4.0 14 12.8 ESE 11 15 6 8 - - 0.0
21/04:30pm 25.1 21.0 -2.8 15 12.7 NE 9 17 5 9 - - 0.0
21/04:20pm 25.4 21.6 -3.7 14 13.0 W 7 11 4 6 - - 0.0
21/04:10pm 25.0 20.9 -3.4 15 12.7 WNW 9 11 5 6 - - 0.0
21/04:00pm 25.0 21.4 -2.3 16 12.5 NNW 7 9 4 5 - - 0.0
21/03:50pm 25.5 22.3 -3.3 14 13.0 NW 4 6 2 3 - - 0.0
21/03:40pm 24.5 20.7 -3.7 15 12.5 NNE 7 13 4 7 - - 0.0
21/03:30pm 24.5 20.9 -1.9 17 12.1 N 7 9 4 5 - - 0.0
21/03:20pm 24.2 19.7 -2.9 16 12.2 WNW 11 15 6 8 - - 0.0
21/03:10pm 24.6 19.0 -2.8 16 12.4 SW 17 20 9 11 - - 0.0
21/03:00pm 24.6 20.2 -2.5 16 12.3 WSW 11 19 6 10 - - 0.0
21/02:50pm 24.6 20.6 -2.3 16 12.3 W 9 13 5 7 - - 0.0
21/02:40pm 24.7 21.4 -1.3 18 12.1 NNW 6 9 3 5 - - 0.0
21/02:30pm 23.9 20.3 -2.2 17 11.9 SE 7 13 4 7 - - 0.0
21/02:20pm 23.7 19.4 -1.3 19 11.5 SW 11 19 6 10 - - 0.0
21/02:10pm 23.1 19.5 -2.1 18 11.4 SSE 7 11 4 6 - - 0.0
21/02:00pm 23.3 19.4 -1.8 18 11.4 WSW 9 15 5 8 - - 0.0
21/01:50pm 23.4 19.9 -1.4 19 11.4 N 7 13 4 7 - - 0.0
21/01:40pm 23.2 19.7 -1.6 19 11.3 WNW 7 9 4 5 - - 0.0
21/01:30pm 22.7 18.4 -2.0 19 11.2 WNW 11 17 6 9 - - 0.0
21/01:20pm 22.8 19.3 -1.6 19 11.1 NNE 7 17 4 9 - - 0.0
21/01:10pm 22.6 18.6 -2.0 19 11.1 SSW 9 20 5 11 - - 0.0
21/01:00pm 22.2 18.7 -1.4 20 10.7 SSW 7 13 4 7 - - 0.0
21/12:50pm 21.9 16.9 -1.4 21 10.6 W 15 22 8 12 - - 0.0
21/12:40pm 22.2 18.3 -1.6 20 10.8 W 9 17 5 9 - - 0.0
21/12:30pm 22.0 18.6 -1.7 20 10.7 S 6 9 3 5 - - 0.0
21/12:20pm 21.6 18.2 -2.3 20 10.6 SW 6 9 3 5 - - 0.0
21/12:10pm 21.3 17.1 -4.3 17 10.9 WSW 9 15 5 8 - - 0.0
21/12:00pm 21.5 17.8 -2.8 19 10.7 WSW 7 15 4 8 - - 0.0
21/11:50am 21.3 17.1 -4.3 17 10.9 SSW 9 11 5 6 - - 0.0
21/11:40am 21.1 17.5 -3.3 19 10.6 S 6 11 3 6 - - 0.0
21/11:30am 20.8 17.1 -2.8 20 10.3 SSW 7 11 4 6 - - 0.0
21/11:20am 20.4 16.2 -4.2 18 10.4 SW 9 13 5 7 - - 0.0
21/11:10am 20.0 16.9 -2.5 22 9.8 ENE 4 11 2 6 - - 0.0
21/11:00am 19.6 16.5 -2.8 22 9.7 SSW 4 9 2 5 - - 0.0
21/10:50am 19.2 15.3 -1.5 24 9.2 SW 9 13 5 7 - - 0.0
21/10:40am 19.3 16.1 -0.4 26 8.9 W 6 9 3 5 - - 0.0
21/10:30am 19.2 16.6 0.7 29 8.6 SW 4 7 2 4 - - 0.0
21/10:20am 18.3 15.6 2.7 35 7.5 WSW 6 7 3 4 - - 0.0
21/10:10am 18.6 16.3 3.0 35 7.5 SE 4 7 2 4 - - 0.0
21/10:00am 17.9 15.5 2.3 35 7.4 WNW 4 6 2 3 - - 0.0
21/09:50am 18.0 15.8 3.6 38 7.0 WNW 4 7 2 4 - - 0.0
21/09:40am 17.6 15.6 4.2 41 6.6 WSW 4 6 2 3 - - 0.0
21/09:30am 17.0 15.0 4.5 43 6.1 SSW 4 6 2 3 - - 0.0
21/09:20am 16.6 14.5 4.1 43 6.1 SW 4 6 2 3 - - 0.0
21/09:10am 15.9 14.2 3.8 44 5.8 SSW 2 4 1 2 - - 0.0
21/09:00am 14.5 12.5 4.3 50 4.9 WNW 4 6 2 3 - - 0.0
21/08:50am 14.0 12.4 4.4 52 4.6 WSW 2 4 1 2 - - 0.0
21/08:40am 12.9 10.9 4.4 56 4.0 WSW 4 6 2 3 - - 0.0
21/08:30am 12.3 10.6 4.2 57 3.8 WSW 2 4 1 2 - - 0.0
21/08:20am 11.4 9.8 4.3 61 3.3 WNW 2 2 1 1 - - 0.0
21/08:10am 10.4 8.7 4.1 65 2.9 W 2 2 1 1 - - 0.0
21/08:00am 9.3 7.6 3.9 69 2.5 SW 2 4 1 2 - - 0.0
21/07:50am 8.6 6.5 4.1 73 2.1 SSW 4 4 2 2 - - 0.0
21/07:40am 8.2 6.4 3.7 73 2.0 ENE 2 2 1 1 - - 0.0
21/07:30am 6.7 4.9 3.5 80 1.4 NE 2 2 1 1 - - 0.0
21/07:20am 5.8 4.0 3.2 83 1.1 NNE 2 4 1 2 - - 0.0
21/07:10am 4.6 2.3 2.7 87 0.8 E 4 4 2 2 - - 0.0
21/07:00am 3.3 0.5 1.8 90 0.6 NNE 6 6 3 3 - - 0.0
21/06:50am 2.4 -0.7 1.4 93 0.4 NE 7 7 4 4 - - 0.0
21/06:40am 1.1 -2.0 0.4 95 0.3 NNE 6 6 3 3 - - 0.0
21/06:30am 0.8 -2.3 -0.1 94 0.3 NE 6 6 3 3 - - 0.0
21/06:20am 1.8 -1.1 1.2 96 0.2 NE 6 6 3 3 - - 0.0
21/06:10am 1.4 -1.6 0.8 96 0.2 NE 6 6 3 3 - - 0.0
21/06:00am 0.9 -1.8 0.2 95 0.3 NNE 4 6 2 3 - - 0.0
21/05:50am 1.7 -0.9 0.8 94 0.4 ENE 4 6 2 3 - - 0.0
21/05:40am 1.3 -1.7 0.7 96 0.2 NE 6 6 3 3 - - 0.0
21/05:30am 1.1 -2.0 -0.1 92 0.5 NE 6 6 3 3 - - 0.0
21/05:20am 2.3 -0.2 1.4 94 0.4 ENE 4 6 2 3 - - 0.0
21/05:10am 2.3 -0.2 1.6 95 0.3 NE 4 4 2 2 - - 0.0
21/05:00am 1.4 -1.2 0.8 96 0.2 NNE 4 4 2 2 - - 0.0
21/04:50am 1.2 -1.5 0.4 94 0.3 NNE 4 6 2 3 - - 0.0
21/04:40am 1.7 -1.0 0.3 90 0.5 ENE 4 6 2 3 - - 0.0
21/04:30am 1.6 -1.4 0.5 92 0.4 NE 6 7 3 4 - - 0.0
21/04:20am 1.6 -1.5 0.3 91 0.5 NE 6 7 3 4 - - 0.0
21/04:10am 2.1 -0.5 0.8 91 0.5 NE 4 4 2 2 - - 0.0
21/04:00am 2.7 0.1 1.1 89 0.6 NE 4 4 2 2 - - 0.0
21/03:50am 2.5 0.0 1.5 93 0.4 NE 4 6 2 3 - - 0.0
21/03:40am 2.3 -0.3 0.7 89 0.6 NNE 4 6 2 3 - - 0.0
21/03:30am 2.6 0.4 1.1 90 0.6 ENE 2 4 1 2 - - 0.0
21/03:20am 3.2 1.0 1.2 87 0.8 SSE 2 4 1 2 - - 0.0
21/03:10am 3.6 1.5 1.8 88 0.7 E 2 4 1 2 - - 0.0
21/03:00am 3.2 0.7 1.5 89 0.7 ENE 4 6 2 3 - - 0.0
21/02:50am 2.7 -0.2 1.2 90 0.6 NNE 6 6 3 3 - - 0.0
21/02:40am 3.2 1.0 1.3 87 0.8 SSE 2 4 1 2 - - 0.0
21/02:30am 3.9 1.4 1.8 86 0.9 SSW 4 4 2 2 - - 0.0
21/02:20am 3.3 1.2 1.5 88 0.7 NNW 2 2 1 1 - - 0.0
21/02:10am 3.2 0.3 1.2 87 0.8 NNE 6 6 3 3 - - 0.0
21/02:00am 3.7 0.8 1.4 85 0.9 NNE 6 6 3 3 - - 0.0
21/01:50am 3.7 0.9 1.8 87 0.8 NNE 6 6 3 3 - - 0.0
21/01:40am 4.0 1.1 1.5 84 1.0 NNE 6 6 3 3 - - 0.0
21/01:30am 4.4 1.6 1.8 83 1.1 NE 6 6 3 3 - - 0.0
21/01:20am 4.9 2.1 2.0 81 1.2 NE 6 7 3 4 - - 0.0
21/01:10am 5.3 2.5 2.1 80 1.4 NE 6 7 3 4 - - 0.0
21/01:00am 5.3 2.3 2.1 80 1.4 ENE 7 7 4 4 - - 0.0
21/12:50am 6.2 3.2 2.3 76 1.7 ENE 7 7 4 4 - - 0.0
21/12:40am 8.2 5.3 2.8 69 2.4 E 7 9 4 5 - - 0.0
21/12:30am 8.3 5.1 2.9 69 2.4 E 9 13 5 7 - - 0.0
21/12:20am 8.3 4.7 2.9 69 2.4 ESE 11 13 6 7 - - 0.0
21/12:10am 8.2 4.6 2.9 69 2.3 E 11 13 6 7 - - 0.0
21/12:00am 8.3 5.1 3.0 69 2.4 E 9 11 5 6 - - 0.0
 
Date/Time
EDT
Temp
°C
App
Temp
°C
Dew
Point
°C
Rel
Hum
%
Delta-T
°C
Wind Press
QNH
hPa
Press
MSL
hPa
Rain since
9am
mm
Dir  Spd
km/h
Gust
km/h
Spd
kts
Gust
kts
20/11:50pm 8.6 5.4 2.9 67 2.5 E 9 13 5 7 - - 0.0
20/11:40pm 8.5 5.6 2.8 67 2.5 E 7 7 4 4 - - 0.0
20/11:30pm 8.8 5.5 2.7 65 2.7 E 9 11 5 6 - - 0.0
20/11:20pm 8.9 6.0 2.8 65 2.7 E 7 9 4 5 - - 0.0
20/11:10pm 9.1 5.8 2.7 64 2.8 ESE 9 15 5 8 - - 0.0
20/11:00pm 9.3 6.4 2.8 64 2.9 E 7 9 4 5 - - 0.0
20/10:50pm 9.6 5.9 2.6 61 3.1 ENE 11 17 6 9 - - 0.0
20/10:40pm 9.6 6.0 2.7 62 3.1 ENE 11 15 6 8 - - 0.0
20/10:30pm 9.8 5.8 2.6 61 3.2 ENE 13 17 7 9 - - 0.0
20/10:20pm 10.0 5.9 2.5 59 3.3 ENE 13 15 7 8 - - 0.0
20/10:10pm 10.2 6.2 2.6 59 3.4 ENE 13 20 7 11 - - 0.0
20/10:00pm 10.4 5.2 2.5 58 3.5 ENE 19 22 10 12 - - 0.0
20/09:50pm 10.6 5.4 2.5 57 3.6 ENE 19 22 10 12 - - 0.0
20/09:40pm 10.9 6.1 2.5 56 3.8 E 17 20 9 11 - - 0.0
20/09:30pm 11.1 6.7 2.6 56 3.8 E 15 17 8 9 - - 0.0
20/09:20pm 11.4 7.0 2.6 54 4.0 E 15 17 8 9 - - 0.0
20/09:10pm 11.6 6.8 2.6 54 4.1 E 17 20 9 11 - - 0.0
20/09:00pm 11.9 7.1 2.8 53 4.1 ENE 17 20 9 11 - - 0.0
20/08:50pm 12.2 7.1 2.9 53 4.3 ENE 19 20 10 11 - - 0.0
20/08:40pm 12.5 7.8 3.0 52 4.4 NE 17 19 9 10 - - 0.0
20/08:30pm 12.8 8.1 3.0 51 4.5 NE 17 20 9 11 - - 0.0
20/08:20pm 13.2 8.1 2.8 49 4.8 ENE 19 22 10 12 - - 0.0
20/08:10pm 13.7 8.5 2.5 46 5.1 NE 19 20 10 11 - - 0.0
20/08:00pm 14.0 9.2 2.4 45 5.3 NE 17 24 9 13 - - 0.0
20/07:50pm 14.1 10.4 2.3 45 5.4 NE 11 17 6 9 - - 0.0
20/07:40pm 14.7 11.0 2.3 43 5.7 N 11 13 6 7 - - 0.0
20/07:30pm 14.9 11.2 2.5 43 5.8 N 11 13 6 7 - - 0.0
20/07:20pm 15.5 11.8 2.4 41 6.1 N 11 13 6 7 - - 0.0
20/07:10pm 16.1 13.2 2.6 40 6.3 N 7 9 4 5 - - 0.0
20/07:00pm 16.7 13.4 2.3 38 6.7 NNW 9 11 5 6 - - 0.0
20/06:50pm 16.8 13.0 1.9 36 6.9 NNW 11 15 6 8 - - 0.0
20/06:40pm 16.8 13.0 1.9 36 6.9 NNW 11 15 6 8 - - 0.0
20/06:30pm 17.3 13.1 1.9 35 7.2 N 13 19 7 10 - - 0.0
20/06:20pm 18.3 13.7 1.4 32 7.9 NW 15 17 8 9 - - 0.0
20/06:10pm 18.6 13.6 1.2 31 8.1 NW 17 19 9 10 - - 0.0
20/06:00pm 18.9 14.2 0.8 29 8.4 NW 15 20 8 11 - - 0.0
20/05:50pm 18.8 14.0 -0.1 28 8.6 NNW 15 19 8 10 - - 0.0
20/05:40pm 18.7 14.2 -0.2 28 8.6 NNW 13 17 7 9 - - 0.0
20/05:30pm 19.3 15.1 -0.8 26 9.0 NW 11 17 6 9 - - 0.0
20/05:20pm 19.5 16.0 -1.3 24 9.3 W 7 11 4 6 - - 0.0
20/05:10pm 19.7 15.8 -1.4 24 9.4 W 9 15 5 8 - - 0.0
20/05:00pm 18.7 14.7 -2.3 24 9.1 SW 9 13 5 7 - - 0.0
20/04:50pm 18.4 14.1 -1.8 25 8.8 WSW 11 15 6 8 - - 0.0
20/04:40pm 18.8 14.4 -2.1 24 9.1 W 11 17 6 9 - - 0.0
20/04:30pm 19.1 13.9 -2.5 23 9.4 W 15 19 8 10 - - 0.0
20/04:20pm 19.7 15.4 -1.9 23 9.5 SW 11 19 6 10 - - 0.0
20/04:10pm 19.6 14.7 -3.4 21 9.8 SW 13 17 7 9 - - 0.0
20/04:00pm 20.4 16.9 -3.1 20 10.2 WNW 6 9 3 5 - - 0.0
20/03:50pm 20.1 16.8 -4.2 19 10.3 ESE 4 7 2 4 - - 0.0
20/03:40pm 19.7 16.0 -4.3 19 10.1 NW 6 9 3 5 - - 0.0
20/03:30pm 19.5 14.9 -4.2 20 10.0 W 11 15 6 8 - - 0.0
20/03:20pm 19.8 14.8 -3.9 20 10.1 SW 13 17 7 9 - - 0.0
20/03:10pm 19.7 15.8 -4.5 19 10.1 WNW 7 13 4 7 - - 0.0
20/03:00pm 19.7 15.4 -5.3 18 10.3 NW 9 17 5 9 - - 0.0
20/02:50pm 19.0 15.0 -5.5 18 10.0 W 7 11 4 6 - - 0.0
20/02:40pm 19.0 14.7 -5.0 19 9.9 SW 9 15 5 8 - - 0.0
20/02:30pm 18.7 14.4 -4.7 20 9.7 NNW 9 17 5 9 - - 0.0
20/02:20pm 18.9 14.2 -5.3 19 9.9 SW 11 19 6 10 - - 0.0
20/02:10pm 19.1 15.2 -5.1 19 10.0 W 7 13 4 7 - - 0.0
20/02:00pm 18.6 14.8 -5.1 19 9.7 SSE 6 7 3 4 - - 0.0
20/01:50pm 17.9 13.9 -5.2 20 9.4 W 7 17 4 9 - - 0.0
20/01:40pm 17.6 13.2 -5.6 20 9.3 W 9 15 5 8 - - 0.0
20/01:30pm 17.3 13.0 -5.3 21 9.1 WNW 9 15 5 8 - - 0.0
20/01:20pm 16.8 11.3 -5.7 21 8.9 WNW 15 22 8 12 - - 0.0
20/01:10pm 16.7 12.7 -6.0 20 8.9 WNW 7 11 4 6 - - 0.0
20/01:00pm 16.7 11.9 -6.4 20 9.0 W 11 19 6 10 - - 0.0
20/12:50pm 16.3 10.3 -6.5 20 8.9 SSW 17 20 9 11 - - 0.0
20/12:40pm 16.3 10.3 -6.3 20 8.8 SW 17 22 9 12 - - 0.0
20/12:30pm 16.0 10.9 -5.5 22 8.5 WSW 13 17 7 9 - - 0.0
20/12:20pm 15.8 10.7 -5.2 23 8.3 SSW 13 17 7 9 - - 0.0
20/12:10pm 15.6 10.1 -5.2 23 8.2 SSW 15 20 8 11 - - 0.0
20/12:00pm 15.4 9.9 -5.8 22 8.3 WSW 15 20 8 11 - - 0.0
20/11:50am 15.4 10.7 -4.8 24 8.1 W 11 19 6 10 - - 0.0
20/11:40am 14.9 10.2 -5.4 24 8.0 SW 11 15 6 8 - - 0.0
20/11:30am 15.0 10.2 -5.9 23 8.1 W 11 19 6 10 - - 0.0
20/11:20am 14.6 9.5 -5.1 25 7.7 W 13 15 7 8 - - 0.0
20/11:10am 14.3 9.9 -5.5 25 7.7 SSW 9 11 5 6 - - 0.0
20/11:00am 13.7 9.0 -5.2 26 7.3 SW 11 15 6 8 - - 0.0
20/10:50am 13.5 9.3 -4.3 29 7.0 WSW 9 15 5 8 - - 0.0
20/10:40am 13.2 9.4 -3.5 31 6.7 SE 7 11 4 6 - - 0.0
20/10:30am 13.0 9.4 -3.9 30 6.7 SSE 6 7 3 4 - - 0.0
20/10:20am 13.0 9.4 -4.0 30 6.7 SSE 6 9 3 5 - - 0.0
20/10:10am 12.4 8.5 -4.4 30 6.5 SSW 7 15 4 8 - - 0.0
20/10:00am 11.8 8.1 -2.8 36 5.9 W 7 11 4 6 - - 0.0
20/09:50am 11.8 7.8 -2.3 37 5.7 SSW 9 13 5 7 - - 0.0
20/09:40am 11.4 6.5 -3.3 35 5.8 SSW 13 17 7 9 - - 0.0
20/09:30am 11.2 7.6 -2.0 39 5.4 SW 7 11 4 6 - - 0.0
20/09:20am 11.0 7.1 -1.7 41 5.2 W 9 13 5 7 - - 0.0
20/09:10am 10.7 7.4 -1.6 42 5.0 SW 6 11 3 6 - - 0.0
20/09:00am 10.3 6.0 -1.6 43 4.8 WSW 11 15 6 8 - - 0.0
20/08:50am 9.9 5.7 -1.0 46 4.5 W 11 15 6 8 - - 0.0
20/08:40am 9.7 5.1 -1.3 46 4.5 W 13 15 7 8 - - 0.0
20/08:30am 9.5 5.7 -1.0 48 4.3 WNW 9 13 5 7 - - 0.0

Latest Capital City Observations: Canberra | Sydney | Melbourne | Brisbane | Adelaide | Perth | Hobart | Darwin

Other formats

Comma delimited format used in spreadsheet applications
http://www.bom.gov.au/fwo/IDN60903/IDN60903.99764.axf

JavaScript Object Notation format (JSON) in row-major order
http://www.bom.gov.au/fwo/IDN60903/IDN60903.99764.json

Data quality

Most of these data are generated automatically and are frequently updated. Quality checks on data are not normally performed. It is possible for incorrect values to appear. Refer to information at About Latest Weather Observations and please check the disclaimer before using these data.